EWG8AP LGTS-EDDL
Flight info
| Callsign | EWG8AP |
|---|---|
| Flight time | N/A |
| Altitude | 38000 |
| Route | FSK UL608 DISOR DCT LONTA UL608 DOLEV DCT MITNO DCT AGLIB DCT ZAG DCT PETOV DCT RENKA DCT RUDNO L604 RODIS DCT SULUS T852 TESDU DCT AMETU T852 TINSA T854 DOMUX DOMUX1A |
| Aircraft | A319/M-SDE3FGHIRWY/LB1 |
Departure
| Time | 2026-05-06 08:20 |
|---|---|
| Airport | Thessaloniki Macedonia International Airport (LGTS) |
Arrival
| Time | N/A |
|---|---|
| Airport | Düsseldorf Airport (EDDL) |
| Time | Latitude | Longitude | Altitude | Speed | Heading |
|---|---|---|---|---|---|
| 2026-05-06 08:02 | 40.52375 | 22.97564 | 15 ft | 0 kts | 46° |
| 2026-05-06 08:12 | 40.52367 | 22.97553 | 16 ft | 2 kts | 48° |
| 2026-05-06 08:12 | 40.52356 | 22.97537 | 17 ft | 2 kts | 50° |
| 2026-05-06 08:12 | 40.52345 | 22.97520 | 16 ft | 2 kts | 53° |
| 2026-05-06 08:12 | 40.52336 | 22.97502 | 16 ft | 2 kts | 57° |
| 2026-05-06 08:13 | 40.52327 | 22.97484 | 16 ft | 2 kts | 63° |
| 2026-05-06 08:13 | 40.52320 | 22.97464 | 17 ft | 2 kts | 70° |
| 2026-05-06 08:13 | 40.52315 | 22.97443 | 15 ft | 2 kts | 81° |
| 2026-05-06 08:13 | 40.52314 | 22.97422 | 15 ft | 2 kts | 96° |
| 2026-05-06 08:14 | 40.52317 | 22.97400 | 15 ft | 2 kts | 113° |
| 2026-05-06 08:14 | 40.52325 | 22.97381 | 16 ft | 2 kts | 130° |
| 2026-05-06 08:14 | 40.52331 | 22.97372 | 16 ft | 1 kts | 139° |
| 2026-05-06 08:15 | 40.52329 | 22.97374 | 16 ft | 2 kts | 139° |
| 2026-05-06 08:16 | 40.52309 | 22.97401 | 15 ft | 7 kts | 133° |
| 2026-05-06 08:16 | 40.52268 | 22.97458 | 15 ft | 10 kts | 134° |
| 2026-05-06 08:16 | 40.52213 | 22.97531 | 15 ft | 12 kts | 135° |
| 2026-05-06 08:16 | 40.52150 | 22.97621 | 15 ft | 14 kts | 117° |
| 2026-05-06 08:17 | 40.52089 | 22.97725 | 15 ft | 15 kts | 150° |
| 2026-05-06 08:17 | 40.52009 | 22.97819 | 15 ft | 17 kts | 113° |
| 2026-05-06 08:17 | 40.51980 | 22.97976 | 15 ft | 19 kts | 104° |
| 2026-05-06 08:17 | 40.51946 | 22.98153 | 16 ft | 21 kts | 103° |
| 2026-05-06 08:18 | 40.51911 | 22.98335 | 15 ft | 21 kts | 104° |
| 2026-05-06 08:18 | 40.51875 | 22.98528 | 17 ft | 23 kts | 104° |
| 2026-05-06 08:18 | 40.51849 | 22.98668 | 15 ft | 13 kts | 102° |
| 2026-05-06 08:18 | 40.51809 | 22.98780 | 15 ft | 15 kts | 137° |
| 2026-05-06 08:19 | 40.51711 | 22.98757 | 15 ft | 13 kts | 216° |
| 2026-05-06 08:19 | 40.51680 | 22.98645 | 15 ft | 14 kts | 279° |
| 2026-05-06 08:19 | 40.51707 | 22.98506 | 14 ft | 18 kts | 285° |
| 2026-05-06 08:19 | 40.51753 | 22.98266 | 15 ft | 44 kts | 283° |
| 2026-05-06 08:20 | 40.51873 | 22.97615 | 15 ft | 101 kts | 283° |
| 2026-05-06 08:20 | 40.52082 | 22.96488 | 19 ft | 152 kts | 283° |
| 2026-05-06 08:20 | 40.52344 | 22.95069 | 465 ft | 161 kts | 285° |
| 2026-05-06 08:20 | 40.52659 | 22.93635 | 1077 ft | 166 kts | 287° |
| 2026-05-06 08:21 | 40.52996 | 22.92111 | 1507 ft | 183 kts | 287° |
| 2026-05-06 08:21 | 40.53381 | 22.90412 | 1850 ft | 207 kts | 287° |
| 2026-05-06 08:21 | 40.53816 | 22.88461 | 2163 ft | 238 kts | 287° |
| 2026-05-06 08:21 | 40.54296 | 22.86245 | 2700 ft | 263 kts | 287° |
| 2026-05-06 08:22 | 40.54806 | 22.83904 | 3652 ft | 268 kts | 286° |
| 2026-05-06 08:22 | 40.55323 | 22.81529 | 4659 ft | 272 kts | 287° |
| 2026-05-06 08:22 | 40.56155 | 22.79295 | 5631 ft | 277 kts | 311° |
| 2026-05-06 08:22 | 40.57780 | 22.77941 | 6518 ft | 284 kts | 345° |
| 2026-05-06 08:23 | 40.59745 | 22.77935 | 7484 ft | 286 kts | 15° |
| 2026-05-06 08:23 | 40.61493 | 22.79082 | 8449 ft | 287 kts | 37° |
| 2026-05-06 08:23 | 40.63217 | 22.80540 | 9319 ft | 294 kts | 22° |
| 2026-05-06 08:23 | 40.65214 | 22.80862 | 10135 ft | 299 kts | 351° |
| 2026-05-06 08:24 | 40.67122 | 22.79744 | 10857 ft | 307 kts | 322° |
| 2026-05-06 08:24 | 40.68758 | 22.77836 | 11196 ft | 327 kts | 318° |
| 2026-05-06 08:24 | 40.70528 | 22.75911 | 11890 ft | 333 kts | 321° |
| 2026-05-06 08:24 | 40.72395 | 22.74072 | 12718 ft | 336 kts | 323° |
| 2026-05-06 08:25 | 40.74318 | 22.72290 | 13564 ft | 339 kts | 324° |
| 2026-05-06 08:25 | 40.76267 | 22.70537 | 14313 ft | 341 kts | 325° |
| 2026-05-06 08:25 | 40.78247 | 22.68771 | 15048 ft | 343 kts | 325° |
| 2026-05-06 08:25 | 40.80226 | 22.66999 | 15761 ft | 346 kts | 325° |
| 2026-05-06 08:26 | 40.82222 | 22.65198 | 16479 ft | 348 kts | 325° |
| 2026-05-06 08:26 | 40.84228 | 22.63377 | 17186 ft | 351 kts | 324° |
| 2026-05-06 08:26 | 40.86243 | 22.61535 | 17891 ft | 354 kts | 324° |
| 2026-05-06 08:26 | 40.88269 | 22.59676 | 18549 ft | 356 kts | 324° |
| 2026-05-06 08:27 | 40.90313 | 22.57802 | 19153 ft | 359 kts | 324° |
| 2026-05-06 08:27 | 40.92375 | 22.55911 | 19773 ft | 361 kts | 324° |
| 2026-05-06 08:27 | 40.94442 | 22.54009 | 20401 ft | 363 kts | 324° |
| 2026-05-06 08:27 | 40.96519 | 22.52098 | 21031 ft | 365 kts | 324° |
| 2026-05-06 08:28 | 40.98608 | 22.50176 | 21634 ft | 367 kts | 324° |
| 2026-05-06 08:28 | 41.00718 | 22.48234 | 22237 ft | 370 kts | 324° |
| 2026-05-06 08:28 | 41.02834 | 22.46284 | 22817 ft | 372 kts | 324° |
| 2026-05-06 08:28 | 41.04963 | 22.44320 | 23390 ft | 374 kts | 324° |
| 2026-05-06 08:29 | 41.07085 | 22.42360 | 23889 ft | 377 kts | 324° |
| 2026-05-06 08:29 | 41.09264 | 22.40350 | 24362 ft | 379 kts | 324° |
| 2026-05-06 08:29 | 41.11436 | 22.38347 | 24833 ft | 381 kts | 324° |
| 2026-05-06 08:29 | 41.13587 | 22.36361 | 25285 ft | 383 kts | 324° |
| 2026-05-06 08:30 | 41.15807 | 22.34308 | 25750 ft | 385 kts | 324° |
| 2026-05-06 08:30 | 41.18005 | 22.32270 | 26195 ft | 387 kts | 324° |
| 2026-05-06 08:30 | 41.20218 | 22.30217 | 26638 ft | 389 kts | 324° |
| 2026-05-06 08:30 | 41.22410 | 22.28178 | 27063 ft | 391 kts | 324° |
| 2026-05-06 08:31 | 41.24643 | 22.26096 | 27524 ft | 394 kts | 324° |
| 2026-05-06 08:31 | 41.26893 | 22.23998 | 27961 ft | 396 kts | 324° |
| 2026-05-06 08:31 | 41.29156 | 22.21889 | 28401 ft | 398 kts | 324° |
| 2026-05-06 08:31 | 41.31425 | 22.19776 | 28815 ft | 400 kts | 324° |
| 2026-05-06 08:32 | 41.33715 | 22.17644 | 29235 ft | 402 kts | 324° |
| 2026-05-06 08:32 | 41.36015 | 22.15501 | 29637 ft | 405 kts | 324° |
| 2026-05-06 08:32 | 41.38334 | 22.13339 | 30050 ft | 407 kts | 324° |
| 2026-05-06 08:32 | 41.40656 | 22.11170 | 30401 ft | 409 kts | 324° |
| 2026-05-06 08:33 | 41.42991 | 22.08987 | 30733 ft | 411 kts | 324° |
| 2026-05-06 08:33 | 41.45333 | 22.06794 | 31065 ft | 413 kts | 324° |
| 2026-05-06 08:33 | 41.47689 | 22.04584 | 31383 ft | 414 kts | 324° |
| 2026-05-06 08:33 | 41.50047 | 22.02371 | 31712 ft | 416 kts | 324° |
| 2026-05-06 08:34 | 41.52420 | 22.00140 | 32106 ft | 416 kts | 323° |
| 2026-05-06 08:34 | 41.57125 | 21.95716 | 33052 ft | 412 kts | 323° |
| 2026-05-06 08:34 | 41.59463 | 21.93519 | 33510 ft | 410 kts | 323° |
| 2026-05-06 08:35 | 41.61795 | 21.91322 | 33986 ft | 409 kts | 323° |
| 2026-05-06 08:35 | 41.64117 | 21.89130 | 34397 ft | 408 kts | 323° |
| 2026-05-06 08:35 | 41.66433 | 21.86941 | 34788 ft | 407 kts | 323° |
| 2026-05-06 08:35 | 41.68739 | 21.84763 | 35146 ft | 406 kts | 323° |
| 2026-05-06 08:36 | 41.71054 | 21.82579 | 35504 ft | 406 kts | 323° |
| 2026-05-06 08:36 | 41.73357 | 21.80402 | 35856 ft | 406 kts | 323° |
| 2026-05-06 08:36 | 41.75631 | 21.78246 | 36199 ft | 405 kts | 323° |
| 2026-05-06 08:36 | 41.77927 | 21.76065 | 36539 ft | 405 kts | 323° |
| 2026-05-06 08:37 | 41.80223 | 21.73880 | 36864 ft | 405 kts | 323° |
| 2026-05-06 08:37 | 41.82517 | 21.71694 | 37195 ft | 404 kts | 323° |
| 2026-05-06 08:37 | 41.84811 | 21.69509 | 37512 ft | 404 kts | 323° |
| 2026-05-06 08:37 | 41.87102 | 21.67329 | 37813 ft | 404 kts | 323° |
| 2026-05-06 08:38 | 41.89397 | 21.65147 | 38047 ft | 404 kts | 323° |
| 2026-05-06 08:38 | 41.93979 | 21.60789 | 38085 ft | 404 kts | 323° |
| 2026-05-06 08:39 | 41.98563 | 21.56418 | 38086 ft | 404 kts | 323° |
| 2026-05-06 08:39 | 42.03140 | 21.52029 | 38085 ft | 404 kts | 323° |
| 2026-05-06 08:40 | 42.07718 | 21.47625 | 38088 ft | 405 kts | 323° |
| 2026-05-06 08:40 | 42.12296 | 21.43217 | 38091 ft | 404 kts | 323° |
| 2026-05-06 08:41 | 42.16679 | 21.38510 | 38087 ft | 402 kts | 312° |
| 2026-05-06 08:41 | 42.20304 | 21.32830 | 38085 ft | 402 kts | 309° |
| 2026-05-06 08:42 | 42.23928 | 21.27077 | 38083 ft | 402 kts | 309° |
| 2026-05-06 08:42 | 42.27549 | 21.21326 | 38088 ft | 402 kts | 309° |
| 2026-05-06 08:43 | 42.31179 | 21.15544 | 38087 ft | 403 kts | 309° |
| 2026-05-06 08:43 | 42.34793 | 21.09768 | 38092 ft | 403 kts | 309° |
| 2026-05-06 08:44 | 42.38417 | 21.03979 | 38090 ft | 403 kts | 309° |
| 2026-05-06 08:44 | 42.42037 | 20.98194 | 38090 ft | 403 kts | 309° |
| 2026-05-06 08:45 | 42.45636 | 20.92424 | 38091 ft | 403 kts | 309° |
| 2026-05-06 08:45 | 42.49257 | 20.86601 | 38094 ft | 404 kts | 309° |
| 2026-05-06 08:46 | 42.52861 | 20.80781 | 38089 ft | 404 kts | 309° |
| 2026-05-06 08:46 | 42.55867 | 20.75924 | 38095 ft | 404 kts | 309° |
| 2026-05-06 08:47 | 42.59477 | 20.70098 | 38081 ft | 404 kts | 309° |
| 2026-05-06 08:47 | 42.63089 | 20.64250 | 38082 ft | 404 kts | 308° |
| 2026-05-06 08:48 | 42.66698 | 20.58379 | 38076 ft | 404 kts | 308° |
| 2026-05-06 08:48 | 42.70299 | 20.52514 | 38077 ft | 405 kts | 308° |
| 2026-05-06 08:49 | 42.73911 | 20.46633 | 38069 ft | 405 kts | 308° |
| 2026-05-06 08:49 | 42.77513 | 20.40757 | 38067 ft | 405 kts | 308° |
| 2026-05-06 08:50 | 42.81115 | 20.34858 | 38068 ft | 405 kts | 308° |
| 2026-05-06 08:50 | 42.84981 | 20.29355 | 38061 ft | 408 kts | 319° |
| 2026-05-06 08:51 | 42.89375 | 20.24470 | 38064 ft | 407 kts | 318° |
| 2026-05-06 08:51 | 42.93755 | 20.19556 | 38065 ft | 408 kts | 318° |
| 2026-05-06 08:52 | 42.98144 | 20.14627 | 38047 ft | 408 kts | 318° |
| 2026-05-06 08:52 | 43.02532 | 20.09706 | 38057 ft | 408 kts | 318° |
| 2026-05-06 08:53 | 43.06910 | 20.04779 | 38050 ft | 408 kts | 318° |
| 2026-05-06 08:53 | 43.11294 | 19.99829 | 38041 ft | 408 kts | 318° |
| 2026-05-06 08:54 | 43.15676 | 19.94870 | 38052 ft | 409 kts | 317° |
| 2026-05-06 08:54 | 43.20054 | 19.89915 | 38045 ft | 409 kts | 317° |
| 2026-05-06 08:55 | 43.24434 | 19.84949 | 38049 ft | 409 kts | 317° |
| 2026-05-06 08:55 | 43.28794 | 19.80001 | 38045 ft | 409 kts | 317° |
| 2026-05-06 08:56 | 43.33179 | 19.75018 | 38050 ft | 409 kts | 317° |
| 2026-05-06 08:56 | 43.37579 | 19.69984 | 38040 ft | 409 kts | 317° |
| 2026-05-06 08:57 | 43.41931 | 19.65009 | 38036 ft | 409 kts | 317° |
| 2026-05-06 08:57 | 43.46303 | 19.60009 | 38030 ft | 409 kts | 317° |
| 2026-05-06 08:58 | 43.50680 | 19.54991 | 38033 ft | 409 kts | 317° |
| 2026-05-06 08:58 | 43.55054 | 19.49957 | 38029 ft | 410 kts | 317° |
| 2026-05-06 08:59 | 43.59434 | 19.44901 | 38034 ft | 410 kts | 317° |
| 2026-05-06 08:59 | 43.63813 | 19.39840 | 38032 ft | 410 kts | 317° |
| 2026-05-06 09:00 | 43.68185 | 19.34787 | 38031 ft | 410 kts | 317° |
| 2026-05-06 09:00 | 43.72542 | 19.29743 | 38031 ft | 411 kts | 316° |
| 2026-05-06 09:01 | 43.76907 | 19.24654 | 38030 ft | 410 kts | 315° |
| 2026-05-06 09:01 | 43.80841 | 19.18972 | 38025 ft | 408 kts | 310° |
| 2026-05-06 09:02 | 43.84722 | 19.13217 | 38031 ft | 409 kts | 310° |
| 2026-05-06 09:02 | 43.88602 | 19.07460 | 38030 ft | 409 kts | 310° |
| 2026-05-06 09:03 | 43.92483 | 19.01677 | 38030 ft | 409 kts | 310° |
| 2026-05-06 09:03 | 43.96354 | 18.95901 | 38029 ft | 409 kts | 310° |
| 2026-05-06 09:04 | 44.00204 | 18.90143 | 38026 ft | 409 kts | 309° |
| 2026-05-06 09:04 | 44.04092 | 18.84319 | 38022 ft | 409 kts | 309° |
| 2026-05-06 09:05 | 44.07938 | 18.78548 | 38018 ft | 409 kts | 309° |
| 2026-05-06 09:05 | 44.11802 | 18.72736 | 38018 ft | 409 kts | 309° |
| 2026-05-06 09:06 | 44.15671 | 18.66927 | 38011 ft | 410 kts | 309° |
| 2026-05-06 09:06 | 44.19540 | 18.61094 | 38009 ft | 410 kts | 309° |
| 2026-05-06 09:07 | 44.23399 | 18.55243 | 38004 ft | 410 kts | 309° |
| 2026-05-06 09:07 | 44.27253 | 18.49393 | 38002 ft | 410 kts | 309° |
| 2026-05-06 09:08 | 44.31109 | 18.43527 | 37997 ft | 410 kts | 309° |
| 2026-05-06 09:08 | 44.34946 | 18.37685 | 37992 ft | 410 kts | 309° |
| 2026-05-06 09:09 | 44.38795 | 18.31797 | 37992 ft | 411 kts | 308° |
| 2026-05-06 09:09 | 44.42652 | 18.25889 | 37990 ft | 411 kts | 308° |
| 2026-05-06 09:10 | 44.46509 | 18.19976 | 37984 ft | 412 kts | 308° |
| 2026-05-06 09:10 | 44.50374 | 18.14043 | 37986 ft | 412 kts | 308° |
| 2026-05-06 09:11 | 44.54231 | 18.08108 | 37981 ft | 412 kts | 308° |
| 2026-05-06 09:11 | 44.58067 | 18.02192 | 37980 ft | 413 kts | 308° |
| 2026-05-06 09:12 | 44.61929 | 17.96221 | 37978 ft | 413 kts | 308° |
| 2026-05-06 09:12 | 44.65790 | 17.90235 | 37968 ft | 413 kts | 308° |
| 2026-05-06 09:13 | 44.69652 | 17.84233 | 37970 ft | 414 kts | 308° |
| 2026-05-06 09:13 | 44.73510 | 17.78226 | 37970 ft | 414 kts | 308° |
| 2026-05-06 09:14 | 44.77377 | 17.72205 | 37967 ft | 415 kts | 307° |
| 2026-05-06 09:14 | 44.81234 | 17.66186 | 37964 ft | 415 kts | 307° |
| 2026-05-06 09:15 | 44.85103 | 17.60133 | 37962 ft | 415 kts | 307° |
| 2026-05-06 09:15 | 44.88937 | 17.54115 | 37964 ft | 415 kts | 307° |
| 2026-05-06 09:16 | 44.92791 | 17.48044 | 37963 ft | 416 kts | 307° |
| 2026-05-06 09:16 | 44.96650 | 17.41967 | 37966 ft | 416 kts | 307° |
| 2026-05-06 09:17 | 45.00512 | 17.35876 | 37965 ft | 416 kts | 307° |
| 2026-05-06 09:17 | 45.04365 | 17.29770 | 37968 ft | 416 kts | 307° |
| 2026-05-06 09:18 | 45.08225 | 17.23642 | 37962 ft | 417 kts | 307° |
| 2026-05-06 09:18 | 45.12082 | 17.17502 | 37961 ft | 417 kts | 307° |
| 2026-05-06 09:19 | 45.16476 | 17.12015 | 37959 ft | 425 kts | 317° |
| 2026-05-06 09:19 | 45.21126 | 17.06939 | 37949 ft | 425 kts | 317° |
| 2026-05-06 09:20 | 45.25805 | 17.01802 | 37950 ft | 426 kts | 316° |
| 2026-05-06 09:20 | 45.30486 | 16.96630 | 37952 ft | 427 kts | 316° |
| 2026-05-06 09:21 | 45.35181 | 16.91447 | 37949 ft | 427 kts | 316° |
| 2026-05-06 09:21 | 45.39885 | 16.86258 | 37954 ft | 428 kts | 316° |
| 2026-05-06 09:22 | 45.44599 | 16.81049 | 37956 ft | 429 kts | 316° |
| 2026-05-06 09:22 | 45.49310 | 16.75811 | 37948 ft | 430 kts | 316° |
| 2026-05-06 09:23 | 45.54024 | 16.70561 | 37952 ft | 431 kts | 316° |
| 2026-05-06 09:23 | 45.58764 | 16.65284 | 37950 ft | 432 kts | 316° |
| 2026-05-06 09:24 | 45.63470 | 16.60038 | 37949 ft | 432 kts | 316° |
| 2026-05-06 09:24 | 45.68214 | 16.54727 | 37952 ft | 433 kts | 316° |
| 2026-05-06 09:25 | 45.72953 | 16.49401 | 37953 ft | 434 kts | 317° |
| 2026-05-06 09:25 | 45.77701 | 16.44063 | 37954 ft | 434 kts | 317° |
| 2026-05-06 09:26 | 45.82462 | 16.38699 | 37957 ft | 435 kts | 317° |
| 2026-05-06 09:26 | 45.87221 | 16.33311 | 37955 ft | 436 kts | 317° |
| 2026-05-06 09:27 | 45.92303 | 16.28506 | 37953 ft | 442 kts | 327° |
| 2026-05-06 09:27 | 45.97667 | 16.24272 | 37950 ft | 442 kts | 327° |
| 2026-05-06 09:28 | 46.03058 | 16.19967 | 37962 ft | 447 kts | 327° |
| 2026-05-06 09:28 | 46.08578 | 16.15550 | 37954 ft | 459 kts | 327° |
| 2026-05-06 09:29 | 46.14188 | 16.11064 | 37948 ft | 463 kts | 327° |
| 2026-05-06 09:29 | 46.19839 | 16.06549 | 37944 ft | 464 kts | 328° |
| 2026-05-06 09:30 | 46.25482 | 16.02036 | 37943 ft | 464 kts | 328° |
| 2026-05-06 09:30 | 46.31101 | 15.97459 | 37942 ft | 463 kts | 323° |
| 2026-05-06 09:31 | 46.36342 | 15.92085 | 37942 ft | 461 kts | 321° |
| 2026-05-06 09:31 | 46.41572 | 15.86684 | 37938 ft | 462 kts | 321° |
| 2026-05-06 09:32 | 46.46810 | 15.81274 | 37943 ft | 462 kts | 321° |
| 2026-05-06 09:32 | 46.52047 | 15.75848 | 37938 ft | 463 kts | 321° |
| 2026-05-06 09:33 | 46.57283 | 15.70393 | 37940 ft | 463 kts | 321° |
| 2026-05-06 09:33 | 46.62530 | 15.64916 | 37934 ft | 464 kts | 321° |
| 2026-05-06 09:34 | 46.67741 | 15.59459 | 37921 ft | 464 kts | 321° |
| 2026-05-06 09:34 | 46.72985 | 15.53965 | 37905 ft | 465 kts | 321° |
| 2026-05-06 09:35 | 46.78246 | 15.48459 | 37890 ft | 466 kts | 321° |
| 2026-05-06 09:35 | 46.83507 | 15.42931 | 37899 ft | 466 kts | 321° |
| 2026-05-06 09:36 | 46.88763 | 15.37388 | 37903 ft | 465 kts | 320° |
| 2026-05-06 09:36 | 46.94006 | 15.31824 | 37904 ft | 465 kts | 320° |
| 2026-05-06 09:37 | 46.99238 | 15.26278 | 37895 ft | 465 kts | 320° |
| 2026-05-06 09:37 | 47.04480 | 15.20723 | 37903 ft | 465 kts | 320° |
| 2026-05-06 09:38 | 47.09684 | 15.15174 | 37910 ft | 465 kts | 320° |
| 2026-05-06 09:38 | 47.14902 | 15.09596 | 37911 ft | 464 kts | 320° |
| 2026-05-06 09:39 | 47.20126 | 15.03996 | 37916 ft | 464 kts | 320° |
| 2026-05-06 09:39 | 47.25327 | 14.98416 | 37918 ft | 463 kts | 319° |
| 2026-05-06 09:40 | 47.30521 | 14.92824 | 37918 ft | 462 kts | 319° |
| 2026-05-06 09:40 | 47.38279 | 14.84450 | 37912 ft | 461 kts | 319° |
| 2026-05-06 09:41 | 47.43456 | 14.78847 | 37902 ft | 461 kts | 319° |
| 2026-05-06 09:41 | 47.48624 | 14.73227 | 37906 ft | 461 kts | 319° |
| 2026-05-06 09:42 | 47.53749 | 14.67647 | 37886 ft | 461 kts | 319° |
| 2026-05-06 09:42 | 47.58909 | 14.62018 | 37889 ft | 460 kts | 319° |
| 2026-05-06 09:43 | 47.64050 | 14.56391 | 37878 ft | 460 kts | 319° |
| 2026-05-06 09:43 | 47.69197 | 14.50752 | 37879 ft | 459 kts | 319° |
| 2026-05-06 09:44 | 47.73501 | 14.46030 | 37859 ft | 459 kts | 319° |
| 2026-05-06 09:44 | 47.78629 | 14.40388 | 37855 ft | 459 kts | 318° |
| 2026-05-06 09:45 | 47.83755 | 14.34725 | 37849 ft | 458 kts | 318° |
| 2026-05-06 09:45 | 47.88836 | 14.29082 | 37848 ft | 458 kts | 318° |
| 2026-05-06 09:46 | 47.93958 | 14.23393 | 37843 ft | 459 kts | 318° |
| 2026-05-06 09:46 | 47.99076 | 14.17697 | 37844 ft | 459 kts | 318° |
| 2026-05-06 09:47 | 48.04199 | 14.11997 | 37849 ft | 459 kts | 318° |
| 2026-05-06 09:47 | 48.09316 | 14.06285 | 37844 ft | 459 kts | 317° |
| 2026-05-06 09:48 | 48.14425 | 14.00544 | 37845 ft | 459 kts | 317° |
| 2026-05-06 09:48 | 48.19531 | 13.94794 | 37847 ft | 459 kts | 317° |
| 2026-05-06 09:49 | 48.24637 | 13.89040 | 37841 ft | 460 kts | 317° |
| 2026-05-06 09:49 | 48.29758 | 13.83253 | 37836 ft | 460 kts | 317° |
| 2026-05-06 09:50 | 48.34864 | 13.77461 | 37837 ft | 461 kts | 317° |
| 2026-05-06 09:50 | 48.39988 | 13.71649 | 37829 ft | 461 kts | 317° |
| 2026-05-06 09:51 | 48.45120 | 13.65826 | 37829 ft | 462 kts | 317° |
| 2026-05-06 09:51 | 48.50220 | 13.60008 | 37827 ft | 463 kts | 316° |
| 2026-05-06 09:52 | 48.55344 | 13.54121 | 37828 ft | 463 kts | 316° |
| 2026-05-06 09:52 | 48.60449 | 13.48183 | 37824 ft | 463 kts | 315° |
| 2026-05-06 09:53 | 48.65400 | 13.41990 | 37825 ft | 462 kts | 313° |
| 2026-05-06 09:53 | 48.70007 | 13.35321 | 37819 ft | 454 kts | 304° |
| 2026-05-06 09:54 | 48.74119 | 13.28070 | 37824 ft | 455 kts | 304° |
| 2026-05-06 09:54 | 48.78251 | 13.20782 | 37823 ft | 455 kts | 304° |
| 2026-05-06 09:55 | 48.82359 | 13.13475 | 37817 ft | 455 kts | 304° |
| 2026-05-06 09:55 | 48.86459 | 13.06151 | 37812 ft | 456 kts | 304° |
| 2026-05-06 09:56 | 48.90567 | 12.98791 | 37820 ft | 457 kts | 304° |
| 2026-05-06 09:56 | 48.94661 | 12.91465 | 37804 ft | 457 kts | 304° |
| 2026-05-06 09:57 | 48.98772 | 12.84084 | 37815 ft | 458 kts | 304° |
| 2026-05-06 09:57 | 49.02887 | 12.76655 | 37805 ft | 458 kts | 304° |
| 2026-05-06 09:58 | 49.06996 | 12.69228 | 37817 ft | 459 kts | 304° |
| 2026-05-06 09:58 | 49.11108 | 12.61770 | 37818 ft | 459 kts | 304° |
| 2026-05-06 09:59 | 49.15211 | 12.54309 | 37816 ft | 459 kts | 304° |
| 2026-05-06 09:59 | 49.19317 | 12.46841 | 37822 ft | 459 kts | 304° |
| 2026-05-06 10:00 | 49.23423 | 12.39341 | 37818 ft | 459 kts | 304° |
| 2026-05-06 10:00 | 49.27484 | 12.31885 | 37822 ft | 459 kts | 304° |
| 2026-05-06 10:01 | 49.31563 | 12.24375 | 37829 ft | 459 kts | 304° |
| 2026-05-06 10:01 | 49.35646 | 12.16848 | 37827 ft | 458 kts | 304° |
| 2026-05-06 10:02 | 49.39712 | 12.09324 | 37819 ft | 457 kts | 304° |
| 2026-05-06 10:02 | 49.43766 | 12.01795 | 37817 ft | 458 kts | 304° |
| 2026-05-06 10:03 | 49.47820 | 11.94246 | 37809 ft | 458 kts | 304° |
| 2026-05-06 10:03 | 49.51759 | 11.86580 | 37808 ft | 456 kts | 302° |
| 2026-05-06 10:04 | 49.55601 | 11.78802 | 37810 ft | 456 kts | 302° |
| 2026-05-06 10:04 | 49.59448 | 11.71006 | 37808 ft | 456 kts | 303° |
| 2026-05-06 10:05 | 49.63311 | 11.63234 | 37807 ft | 456 kts | 303° |
| 2026-05-06 10:05 | 49.67125 | 11.55414 | 37804 ft | 453 kts | 297° |
| 2026-05-06 10:06 | 49.70017 | 11.46916 | 37806 ft | 450 kts | 293° |
| 2026-05-06 10:06 | 49.72875 | 11.38244 | 37813 ft | 450 kts | 292° |
| 2026-05-06 10:07 | 49.75704 | 11.29615 | 37805 ft | 450 kts | 292° |
| 2026-05-06 10:07 | 49.78514 | 11.21018 | 37814 ft | 450 kts | 292° |
| 2026-05-06 10:08 | 49.81325 | 11.12369 | 37808 ft | 450 kts | 292° |
| 2026-05-06 10:08 | 49.84139 | 11.03699 | 37802 ft | 451 kts | 292° |
| 2026-05-06 10:09 | 49.86952 | 10.95010 | 37801 ft | 451 kts | 292° |
| 2026-05-06 10:09 | 49.89765 | 10.86307 | 37799 ft | 451 kts | 292° |
| 2026-05-06 10:10 | 49.92568 | 10.77605 | 37793 ft | 452 kts | 292° |
| 2026-05-06 10:10 | 49.95369 | 10.68853 | 37789 ft | 452 kts | 292° |
| 2026-05-06 10:11 | 49.98169 | 10.60094 | 37787 ft | 453 kts | 292° |
| 2026-05-06 10:11 | 50.00958 | 10.51317 | 37783 ft | 453 kts | 292° |
| 2026-05-06 10:12 | 50.03741 | 10.42520 | 37786 ft | 454 kts | 292° |
| 2026-05-06 10:12 | 50.06510 | 10.33765 | 37780 ft | 454 kts | 292° |
| 2026-05-06 10:13 | 50.09317 | 10.24880 | 37781 ft | 454 kts | 292° |
| 2026-05-06 10:13 | 50.12077 | 10.16083 | 37776 ft | 455 kts | 292° |
| 2026-05-06 10:14 | 50.14843 | 10.07236 | 37779 ft | 455 kts | 292° |
| 2026-05-06 10:14 | 50.17607 | 9.98370 | 37781 ft | 455 kts | 292° |
| 2026-05-06 10:15 | 50.20367 | 9.89463 | 37777 ft | 455 kts | 292° |
| 2026-05-06 10:15 | 50.23123 | 9.80556 | 37774 ft | 455 kts | 292° |
| 2026-05-06 10:16 | 50.25867 | 9.71657 | 37777 ft | 455 kts | 292° |
| 2026-05-06 10:16 | 50.28610 | 9.62728 | 37775 ft | 455 kts | 291° |
| 2026-05-06 10:17 | 50.31342 | 9.53798 | 37773 ft | 455 kts | 291° |
| 2026-05-06 10:17 | 50.34053 | 9.44880 | 37554 ft | 448 kts | 291° |
| 2026-05-06 10:18 | 50.35381 | 9.40514 | 37283 ft | 441 kts | 291° |
| 2026-05-06 10:18 | 50.36693 | 9.36199 | 37015 ft | 437 kts | 291° |
| 2026-05-06 10:18 | 50.37993 | 9.31914 | 36740 ft | 435 kts | 291° |
| 2026-05-06 10:18 | 50.39286 | 9.27638 | 36471 ft | 434 kts | 291° |
| 2026-05-06 10:19 | 50.40581 | 9.23357 | 36221 ft | 434 kts | 291° |
| 2026-05-06 10:19 | 50.41864 | 9.19093 | 35667 ft | 435 kts | 290° |
| 2026-05-06 10:19 | 50.43154 | 9.14785 | 34898 ft | 439 kts | 290° |
| 2026-05-06 10:19 | 50.44452 | 9.10447 | 34418 ft | 436 kts | 290° |
| 2026-05-06 10:20 | 50.45738 | 9.06161 | 33942 ft | 433 kts | 290° |
| 2026-05-06 10:20 | 50.47012 | 9.01917 | 33406 ft | 430 kts | 290° |
| 2026-05-06 10:20 | 50.48281 | 8.97686 | 32923 ft | 425 kts | 290° |
| 2026-05-06 10:20 | 50.49532 | 8.93499 | 32437 ft | 421 kts | 290° |
| 2026-05-06 10:21 | 50.50748 | 8.89405 | 31963 ft | 418 kts | 290° |
| 2026-05-06 10:21 | 50.51985 | 8.85229 | 31467 ft | 413 kts | 290° |
| 2026-05-06 10:21 | 50.53188 | 8.81163 | 30981 ft | 409 kts | 290° |
| 2026-05-06 10:21 | 50.54362 | 8.77186 | 30536 ft | 405 kts | 290° |
| 2026-05-06 10:22 | 50.55543 | 8.73193 | 30047 ft | 401 kts | 290° |
| 2026-05-06 10:22 | 50.56712 | 8.69239 | 29567 ft | 397 kts | 290° |
| 2026-05-06 10:22 | 50.57868 | 8.65322 | 29104 ft | 391 kts | 290° |
| 2026-05-06 10:22 | 50.59006 | 8.61463 | 28678 ft | 386 kts | 290° |
| 2026-05-06 10:23 | 50.60129 | 8.57645 | 28262 ft | 381 kts | 290° |
| 2026-05-06 10:23 | 50.61232 | 8.53882 | 27842 ft | 377 kts | 290° |
| 2026-05-06 10:23 | 50.62328 | 8.50134 | 27442 ft | 374 kts | 290° |
| 2026-05-06 10:23 | 50.63406 | 8.46438 | 27056 ft | 371 kts | 290° |
| 2026-05-06 10:24 | 50.64476 | 8.42760 | 26645 ft | 368 kts | 290° |
| 2026-05-06 10:24 | 50.65533 | 8.39118 | 26298 ft | 364 kts | 290° |
| 2026-05-06 10:24 | 50.66583 | 8.35500 | 25920 ft | 361 kts | 290° |
| 2026-05-06 10:24 | 50.67625 | 8.31917 | 25543 ft | 358 kts | 290° |
| 2026-05-06 10:25 | 50.68656 | 8.28362 | 25166 ft | 355 kts | 290° |
| 2026-05-06 10:25 | 50.69678 | 8.24832 | 24784 ft | 353 kts | 290° |
| 2026-05-06 10:25 | 50.70683 | 8.21359 | 24392 ft | 350 kts | 290° |
| 2026-05-06 10:25 | 50.71702 | 8.17827 | 24008 ft | 348 kts | 290° |
| 2026-05-06 10:26 | 50.72699 | 8.14363 | 23608 ft | 346 kts | 290° |
| 2026-05-06 10:26 | 50.73688 | 8.10916 | 23174 ft | 344 kts | 290° |
| 2026-05-06 10:26 | 50.74672 | 8.07489 | 22747 ft | 342 kts | 290° |
| 2026-05-06 10:26 | 50.75640 | 8.04128 | 22344 ft | 338 kts | 290° |
| 2026-05-06 10:27 | 50.76611 | 8.00748 | 21938 ft | 336 kts | 290° |
| 2026-05-06 10:27 | 50.77567 | 7.97406 | 21534 ft | 333 kts | 291° |
| 2026-05-06 10:27 | 50.78517 | 7.94078 | 21123 ft | 331 kts | 291° |
| 2026-05-06 10:27 | 50.79462 | 7.90762 | 20728 ft | 330 kts | 291° |
| 2026-05-06 10:28 | 50.80402 | 7.87463 | 20307 ft | 328 kts | 291° |
| 2026-05-06 10:28 | 50.81334 | 7.84185 | 19894 ft | 327 kts | 291° |
| 2026-05-06 10:28 | 50.82264 | 7.80912 | 19487 ft | 326 kts | 291° |
| 2026-05-06 10:28 | 50.83192 | 7.77649 | 19093 ft | 325 kts | 291° |
| 2026-05-06 10:29 | 50.84117 | 7.74386 | 18679 ft | 324 kts | 291° |
| 2026-05-06 10:29 | 50.85037 | 7.71132 | 18276 ft | 324 kts | 291° |
| 2026-05-06 10:29 | 50.85955 | 7.67886 | 17836 ft | 323 kts | 291° |
| 2026-05-06 10:29 | 50.86867 | 7.64662 | 17420 ft | 320 kts | 291° |
| 2026-05-06 10:30 | 50.87775 | 7.61446 | 17016 ft | 318 kts | 291° |
| 2026-05-06 10:30 | 50.88672 | 7.58257 | 16621 ft | 316 kts | 291° |
| 2026-05-06 10:30 | 50.89562 | 7.55083 | 16217 ft | 314 kts | 291° |
| 2026-05-06 10:30 | 50.90442 | 7.51935 | 15831 ft | 313 kts | 291° |
| 2026-05-06 10:31 | 50.91318 | 7.48798 | 15444 ft | 311 kts | 291° |
| 2026-05-06 10:31 | 50.92193 | 7.45657 | 15042 ft | 310 kts | 291° |
| 2026-05-06 10:31 | 50.93067 | 7.42528 | 14639 ft | 309 kts | 291° |
| 2026-05-06 10:31 | 50.93933 | 7.39419 | 14257 ft | 308 kts | 291° |
| 2026-05-06 10:32 | 50.94799 | 7.36317 | 13870 ft | 308 kts | 291° |
| 2026-05-06 10:32 | 50.95373 | 7.34262 | 13613 ft | 307 kts | 291° |
| 2026-05-06 10:32 | 50.96238 | 7.31161 | 13187 ft | 306 kts | 291° |
| 2026-05-06 10:32 | 50.97096 | 7.28081 | 12795 ft | 304 kts | 291° |
| 2026-05-06 10:33 | 50.97943 | 7.25034 | 12420 ft | 301 kts | 291° |
| 2026-05-06 10:33 | 50.98785 | 7.22001 | 12041 ft | 299 kts | 291° |
| 2026-05-06 10:33 | 50.99886 | 7.18006 | 11539 ft | 297 kts | 291° |
| 2026-05-06 10:33 | 51.00442 | 7.15990 | 11284 ft | 296 kts | 291° |
| 2026-05-06 10:34 | 51.01266 | 7.13008 | 10912 ft | 294 kts | 291° |
| 2026-05-06 10:34 | 51.02090 | 7.10029 | 10542 ft | 293 kts | 291° |
| 2026-05-06 10:34 | 51.02906 | 7.07073 | 10161 ft | 293 kts | 291° |
| 2026-05-06 10:34 | 51.03711 | 7.04148 | 9879 ft | 290 kts | 291° |
| 2026-05-06 10:35 | 51.04525 | 7.01185 | 9783 ft | 290 kts | 291° |
| 2026-05-06 10:35 | 51.05328 | 6.98259 | 9336 ft | 294 kts | 291° |
| 2026-05-06 10:35 | 51.06150 | 6.95258 | 9081 ft | 290 kts | 291° |
| 2026-05-06 10:35 | 51.06951 | 6.92335 | 8600 ft | 288 kts | 291° |
| 2026-05-06 10:36 | 51.07741 | 6.89428 | 7842 ft | 293 kts | 291° |
| 2026-05-06 10:36 | 51.08551 | 6.86431 | 7126 ft | 296 kts | 291° |
| 2026-05-06 10:36 | 51.09362 | 6.83431 | 6539 ft | 293 kts | 291° |
| 2026-05-06 10:36 | 51.10165 | 6.80477 | 5978 ft | 291 kts | 292° |
| 2026-05-06 10:37 | 51.10979 | 6.77499 | 5396 ft | 286 kts | 292° |
| 2026-05-06 10:37 | 51.11752 | 6.74668 | 4867 ft | 279 kts | 292° |
| 2026-05-06 10:37 | 51.12516 | 6.71861 | 4303 ft | 274 kts | 293° |
| 2026-05-06 10:37 | 51.13276 | 6.69058 | 3575 ft | 276 kts | 293° |
| 2026-05-06 10:38 | 51.14021 | 6.66300 | 3137 ft | 267 kts | 293° |
| 2026-05-06 10:38 | 51.14729 | 6.63673 | 3023 ft | 246 kts | 294° |
| 2026-05-06 10:38 | 51.15373 | 6.61292 | 3026 ft | 225 kts | 294° |
| 2026-05-06 10:38 | 51.15969 | 6.59084 | 3033 ft | 209 kts | 294° |
| 2026-05-06 10:39 | 51.16735 | 6.57232 | 3019 ft | 195 kts | 323° |
| 2026-05-06 10:39 | 51.17965 | 6.56516 | 3019 ft | 189 kts | 360° |
| 2026-05-06 10:39 | 51.19193 | 6.57110 | 2935 ft | 188 kts | 36° |
| 2026-05-06 10:39 | 51.20053 | 6.58668 | 2765 ft | 187 kts | 52° |
| 2026-05-06 10:40 | 51.20831 | 6.60298 | 2524 ft | 182 kts | 52° |
| 2026-05-06 10:40 | 51.21582 | 6.61867 | 2270 ft | 174 kts | 52° |
| 2026-05-06 10:40 | 51.22298 | 6.63358 | 2027 ft | 166 kts | 51° |
| 2026-05-06 10:40 | 51.22974 | 6.64749 | 1836 ft | 149 kts | 51° |
| 2026-05-06 10:41 | 51.23566 | 6.65997 | 1646 ft | 136 kts | 50° |
| 2026-05-06 10:41 | 51.24137 | 6.67179 | 1450 ft | 131 kts | 50° |
| 2026-05-06 10:41 | 51.24688 | 6.68336 | 1268 ft | 131 kts | 52° |
| 2026-05-06 10:41 | 51.25227 | 6.69486 | 1048 ft | 127 kts | 50° |
| 2026-05-06 10:42 | 51.25775 | 6.70621 | 835 ft | 130 kts | 50° |
| 2026-05-06 10:42 | 51.26330 | 6.71785 | 667 ft | 132 kts | 49° |